Kodiak, AK

4:38 PM AKST on January 31, 2015 (GMT -0900)
Bob Plyler on Selief Lane | Change Station
CLOSE
Current Station
Personal Weather Station
Location: Kodiak, AK
Elevation: 115 ft
Nearby Weather Stations

Elev 115 ft 57.80 °N, 152.39 °W | Updated 3 seconds ago

Overcast
Overcast
40.3 °F
Feels Like 33 °F
N
12.3
Wind Variable Wind from South
Gusts 12.3 mph

Today
High -- | Low -- °F
--% Chance of Precip.
Yesterday
High -- | Low -- °F
Precip. -- in
9:14 AM 5:32 PM
Waxing Gibbous, 92% visible
Pressure 30.11 in
Visibility 9.0 miles
Clouds Scattered Clouds 1300 ft
Mostly Cloudy 2000 ft
Overcast 2700 ft
Windchill 33 °F
Dew Point 31 °F
Humidity 69%
Rainfall 0.00 in
Snow Depth Not available.
UV 0 out of 12
Pollen Not available.
Air Quality Not available.
Flu Activity Not available.
METAR PADQ 010053Z 02020G30KT 9SM SCT013 BKN020 OVC027 05/02 A3011 RMK AO2 PK WND 02033/0041 SLP196 T00500017

More Conditions Fewer Conditions

Pressure 30.11 in
Visibility 9.0 miles
Clouds Scattered Clouds 1300 ft
Mostly Cloudy 2000 ft
Overcast 2700 ft
Windchill 33 °F
Dew Point 31 °F
Humidity 69%
Rainfall 0.00 in
Snow Depth Not available.
UV 0 out of 12
Pollen Not available.
Air Quality Not available.
Flu Activity Not available.
METAR PADQ 010053Z 02020G30KT 9SM SCT013 BKN020 OVC027 05/02 A3011 RMK AO2 PK WND 02033/0041 SLP196 T00500017

More Conditions Fewer Conditions

10-Day Weather Forecast

Almanac

Astronomy

Jan. 31, 2015 Rise Set
Actual Time
Civil Twilight
Nautical Twilight
Astronomical Twilight
Moon
Length of Visible Light
Length of Day
Tomorrow will be .
, % of the Moon is Illuminated

Today's Extremes

State Highs State Lows

Community

WunderPhotos

Upload Photos

1,792,278 photos uploaded!

WunderBlogs® & News

Nearby

Air Quality

  Air Quality AQ Index Pollutant
Not available.

Snow Depth

Station Depth Elevation

Earthquake Activity

City Distance Mag. Time & Date
Minimum magnitude displayed is 2.5.

Coastal Water Temperatures

Place Temperature

Nearby Weather Stations